LIMLLIPR

Guest
Details From LIML - Milano Linate
To LIPR - Rimini Mil
Flight Number -
Tags generated
Created
Modified
Stats Distance 166 nm / 308 km
Max Altitude 13,800 ft / 4,206 m
Waypoints 3
Social Downloads 6
Likes 0
Share VATSIM

Download

Looking for another format? Having issues loading an existing format? Contact us
Advertisement - Login to hide

Notes

Basic altitude profile: - Ascent Rate: 2500ft/min - Ascent Speed: 250kts - Cruise Altitude: 35000ft - Cruise Speed: 420kts - Descent Rate: 1500ft/min - Descent Speed: 250kts Options: - Use NATs: yes - Use PACOTS: yes - Use low airways: yes - Use high airways: yes

Route

LIML BOA LIPR

ID Type Via Altitude Latitude Longitude Leg Dist Tot Dist Heading (true) Name
O LIML APT - 0 ft / 0 m 45.45030˚ 9.27280˚ - 0 nm - Milano Linate
BOA VOR - 13,800 ft / 4,206 m 44.53694˚ 11.29055˚ 101 nm 101 nm 122° / 123° BOLOGNA VOR-DME
O LIPR APT - 0 ft / 0 m 44.02029˚ 12.61175˚ 64 nm 166 nm 118° / 119° Rimini Mil

Altitude Profile

Advertisement - Login to hide

Weather


0- 5 10 15 20 25 30 35+ Temperature / ° C

Clouds and Precipitation
Forecast for 2018-05-28 00:00 UTC. Updated 4 hours ago

Ground ~20,000 ft ~40,000 ft Winds

LIML

Details ICAO LIML (LIN)
Name Milano Linate
Region Italy
Timezone Europe/Rome (UTC+2.0)
Stats Elevation 353 ft / 108 m (AMSL)
Location 45.450302° 9.272801°
Runways 2
Magnetic Variation 2.553° E

METAR

LIML 280250Z VRB01KT 9999 FEW020CB SCT050 20/15 Q1017 NOSIG

Decode

TAF

TAF AMD LIML 280246Z 2803/2824 VRB05KT 9999 BKN050 TEMPO 2803/2806 4000 TSRA TEMPO 2815/2824 4000 TSRA

Decode

Departure Runways

ID Width Length Bearing (true) Bearing (mag) Surface Threshold Offset Overrun Length
17 72 ft / 22 m 1,975 ft / 602 m 175.64° 173.09° Asphalt 200 ft / 61 m 0 ft / 0 m
18 197 ft / 60 m 8,017 ft / 2,443 m 175.67° 173.12° Asphalt 0 ft / 0 m 190 ft / 58 m
35 72 ft / 22 m 1,975 ft / 602 m 355.64° 353.09° Asphalt 200 ft / 61 m 0 ft / 0 m
36 197 ft / 60 m 8,017 ft / 2,443 m 355.68° 353.13° Asphalt 0 ft / 0 m 980 ft / 299 m

LIPR

Details ICAO LIPR (RMI)
Name Rimini Mil
Region Italy
Timezone Europe/Rome (UTC+2.0)
Stats Elevation 41 ft / 12 m (AMSL)
Location 44.020286° 12.611746°
Runways 1
Magnetic Variation 3.217° E

METAR

LIPR 280245Z 19002KT CAVOK 19/18 Q1016 RMK SKC VIS MIN 9999 WIND THR31 00000KT BLU

Decode

TAF

Not found

Destination Runways

ID Width Length Bearing (true) Bearing (mag) Surface Threshold Offset Overrun Length
13 148 ft / 45 m 9,818 ft / 2,992 m 127.79° 124.57° Asphalt 1,030 ft / 314 m 846 ft / 258 m
31 148 ft / 45 m 9,818 ft / 2,992 m 307.81° 304.59° Asphalt 1,006 ft / 307 m 376 ft / 115 m

Approach Navaids

Runway Type Ident Frequency Range Bearing (true) Bearing (mag) Slope Elevation
31 Localiser MIR 109.30 MHz 18 nm / 33 km 307.77° 304.55° - 41 ft / 12 m (AMSL)
31 Glidescope MIR 109.30 MHz 10 nm / 19 km 307.80° 304.58° 3.00° 41 ft / 12 m (AMSL)

Popular Alternatives